Boyes, Montana
Current Conditions -  °F | °C
As of 12:55 AM on Sunday 26 Oct 2014 (Local Time) from KW43 Reporting Station
Clear Clear  
Wind Chill: 68°   Ceiling: Unl
Heat Index: 68°   Visibility: 10mi
Dew Point: 30°   Wind: 20mph
Humidity: 24%   Direction: 200°SSW
Pressure: 29.73"   Gusts: 29mph
Location:  45.27°N, 105.03°W
Report Text: KW43 260655Z AUTO 20017G25KT 10SM CLR 20/M01 A2973 RMK AO2
Loading
Personal Weather Stations






























Interactive Weather Map
Tropical Storm Tracking
New forecast layout! Learn more

10-Day Weather Forecast

Advertisements
Track Severe Weather on mobile